Time;durP1;ratioP1;P1;durP2;ratioP2;P2;SDS_P1;SDS_P2;PMS_P1;PMS_P2;Temp;Humidity;BMP_temperature;BMP_pressure;BME280_temperature;BME280_humidity;BME280_pressure;Samples;Min_cycle;Max_cycle;Signal;HPM_P1;HPM_P2
2023/04/08 00:02:18;;;;;;;23.40;13.07;;;11.10;77.60;;;;;;5072458;28;20198;-73
2023/04/08 00:04:47;;;;;;;22.47;12.73;;;11.10;77.70;;;;;;5070535;28;20224;-73
2023/04/08 00:07:15;;;;;;;26.57;13.97;;;11.10;77.70;;;;;;5071658;28;20528;-73
2023/04/08 00:09:43;;;;;;;25.17;13.13;;;11.10;77.50;;;;;;5085075;28;20189;-74
2023/04/08 00:12:12;;;;;;;24.27;13.17;;;11.10;77.30;;;;;;5072268;28;20218;-74
2023/04/08 00:14:40;;;;;;;24.87;12.53;;;11.20;77.20;;;;;;5074714;28;20259;-74
2023/04/08 00:17:09;;;;;;;24.27;12.40;;;11.10;77.10;;;;;;5076442;28;20203;-73
2023/04/08 00:19:39;;;;;;;23.73;13.17;;;11.20;77.10;;;;;;5075830;28;20209;-72
2023/04/08 00:22:07;;;;;;;25.53;12.83;;;11.20;77.00;;;;;;5075779;28;20190;-73
2023/04/08 00:24:36;;;;;;;29.77;12.93;;;11.20;77.00;;;;;;5076412;28;20307;-73
2023/04/08 00:27:04;;;;;;;23.47;13.00;;;11.20;76.90;;;;;;5076479;28;20226;-74
2023/04/08 00:29:32;;;;;;;25.43;13.43;;;11.10;76.80;;;;;;5067276;28;20631;-73
2023/04/08 00:32:01;;;;;;;27.30;14.07;;;11.20;76.90;;;;;;5067775;28;20244;-73
2023/04/08 00:34:30;;;;;;;27.10;13.33;;;11.20;76.90;;;;;;5071065;28;20194;-73
2023/04/08 00:37:00;;;;;;;25.27;13.43;;;11.20;76.90;;;;;;5068127;28;20600;-74
2023/04/08 00:39:28;;;;;;;29.30;13.20;;;11.20;76.90;;;;;;5071972;28;20199;-73
2023/04/08 00:41:56;;;;;;;25.73;13.57;;;11.30;76.90;;;;;;5066680;28;20194;-73
2023/04/08 00:44:25;;;;;;;22.00;13.00;;;11.30;76.90;;;;;;5071840;28;20638;-73
2023/04/08 00:46:53;;;;;;;26.57;14.17;;;11.30;76.90;;;;;;5072790;28;20214;-73
2023/04/08 00:49:21;;;;;;;25.10;13.93;;;11.30;76.90;;;;;;5069221;28;20197;-73
2023/04/08 00:51:50;;;;;;;24.93;12.93;;;11.30;77.00;;;;;;5077595;28;20643;-74
2023/04/08 00:54:20;;;;;;;27.07;13.20;;;11.30;76.90;;;;;;5070542;28;20591;-75
2023/04/08 00:56:48;;;;;;;23.97;13.83;;;11.30;76.90;;;;;;5076339;28;20206;-74
2023/04/08 00:59:18;;;;;;;31.13;15.00;;;11.30;76.80;;;;;;5066266;28;20214;-74
2023/04/08 01:01:55;;;;;;;27.50;14.07;;;11.30;76.80;;;;;;5070459;28;20194;-73
2023/04/08 01:04:29;;;;;;;25.07;13.00;;;11.30;76.80;;;;;;5066800;28;20194;-74
2023/04/08 01:07:04;;;;;;;25.00;13.87;;;11.30;76.70;;;;;;5071260;28;20202;-73
2023/04/08 01:09:38;;;;;;;23.27;13.27;;;11.30;76.70;;;;;;5065120;28;20186;-74
2023/04/08 01:12:09;;;;;;;23.80;13.43;;;11.30;76.50;;;;;;5068763;28;20189;-74
2023/04/08 01:14:42;;;;;;;24.57;13.97;;;11.30;76.60;;;;;;5065023;28;20198;-74
2023/04/08 01:17:11;;;;;;;24.80;14.10;;;11.30;76.60;;;;;;5065233;28;20182;-73
2023/04/08 01:19:43;;;;;;;24.70;13.80;;;11.30;76.60;;;;;;5067287;28;20678;-77
2023/04/08 01:22:19;;;;;;;30.43;14.70;;;11.40;76.60;;;;;;5070875;28;20193;-73
2023/04/08 01:24:52;;;;;;;26.07;14.17;;;11.40;76.70;;;;;;5072788;28;20607;-73
2023/04/08 01:27:22;;;;;;;26.60;13.03;;;11.40;76.80;;;;;;5071011;28;20245;-73
2023/04/08 01:29:52;;;;;;;27.80;13.53;;;11.40;76.80;;;;;;5061521;28;20600;-75
2023/04/08 01:32:21;;;;;;;29.20;14.50;;;11.40;76.90;;;;;;5069657;28;20259;-74
2023/04/08 01:34:50;;;;;;;27.63;13.77;;;11.40;76.90;;;;;;5072787;28;20190;-74
2023/04/08 01:37:19;;;;;;;27.07;14.60;;;11.40;77.10;;;;;;5071839;28;20276;-74
2023/04/08 01:39:49;;;;;;;28.23;14.37;;;11.40;77.20;;;;;;5068715;28;20194;-73
2023/04/08 01:42:18;;;;;;;27.90;13.87;;;11.40;77.30;;;;;;5065186;28;20696;-74
2023/04/08 01:44:48;;;;;;;30.17;15.27;;;11.40;77.40;;;;;;5071874;28;20273;-76
2023/04/08 01:47:16;;;;;;;26.80;14.67;;;11.40;77.40;;;;;;5066937;28;20246;-74
2023/04/08 01:49:45;;;;;;;24.43;13.23;;;11.40;78.30;;;;;;5064258;28;20252;-74
2023/04/08 01:52:14;;;;;;;26.57;14.73;;;11.40;77.50;;;;;;5066903;28;20244;-73
2023/04/08 01:54:43;;;;;;;26.37;13.77;;;11.40;77.40;;;;;;5077703;28;20243;-73
2023/04/08 01:57:14;;;;;;;24.47;13.87;;;11.40;77.40;;;;;;5069872;28;20279;-73
2023/04/08 01:59:43;;;;;;;27.63;13.63;;;11.40;77.50;;;;;;5066016;28;20242;-73
2023/04/08 02:02:15;;;;;;;25.77;13.67;;;11.40;77.50;;;;;;5066006;28;20252;-73
2023/04/08 02:04:43;;;;;;;27.70;14.60;;;11.40;77.60;;;;;;5071100;28;20640;-74
2023/04/08 02:07:12;;;;;;;25.90;14.17;;;11.40;77.50;;;;;;5068241;28;20698;-73
2023/04/08 02:09:41;;;;;;;29.63;14.70;;;11.40;77.50;;;;;;5070145;28;20256;-73
2023/04/08 02:12:09;;;;;;;27.67;13.57;;;11.40;77.50;;;;;;5070762;28;20198;-76
2023/04/08 02:14:38;;;;;;;26.67;14.53;;;11.40;77.70;;;;;;5068239;28;20739;-73
2023/04/08 02:17:10;;;;;;;29.17;15.07;;;11.40;77.70;;;;;;5061770;28;20240;-73
2023/04/08 02:19:46;;;;;;;28.47;15.77;;;11.40;77.70;;;;;;5061696;28;20222;-73
2023/04/08 02:22:23;;;;;;;28.03;15.30;;;11.40;77.70;;;;;;5059771;28;20186;-73
2023/04/08 02:24:52;;;;;;;27.80;14.70;;;11.40;77.70;;;;;;5066331;28;20190;-74
2023/04/08 02:27:22;;;;;;;28.27;14.70;;;11.40;77.70;;;;;;5060711;28;20260;-73
2023/04/08 02:29:53;;;;;;;28.17;15.33;;;11.50;77.80;;;;;;5063222;28;20195;-73
2023/04/08 02:32:23;;;;;;;27.30;13.03;;;11.40;77.70;;;;;;5070788;28;21062;-73
2023/04/08 02:34:54;;;;;;;29.03;15.00;;;11.50;77.80;;;;;;5067292;28;20182;-73
2023/04/08 02:37:23;;;;;;;27.47;14.47;;;11.50;77.80;;;;;;5066802;28;20182;-73
2023/04/08 02:39:51;;;;;;;30.53;15.40;;;11.50;77.70;;;;;;5066661;28;20199;-73
2023/04/08 02:42:20;;;;;;;26.57;14.87;;;11.50;77.70;;;;;;5067478;28;20682;-73
2023/04/08 02:44:48;;;;;;;32.33;16.20;;;11.50;77.70;;;;;;5066132;28;20202;-73
2023/04/08 02:47:16;;;;;;;27.53;14.90;;;11.50;77.70;;;;;;5066220;28;20214;-73
2023/04/08 02:49:45;;;;;;;30.87;15.57;;;11.50;77.70;;;;;;5072743;28;20743;-73
2023/04/08 02:52:14;;;;;;;32.73;16.23;;;11.50;77.70;;;;;;5066589;28;20240;-73
2023/04/08 02:54:43;;;;;;;30.77;15.47;;;11.50;77.70;;;;;;5067338;28;20245;-73
2023/04/08 02:57:11;;;;;;;30.03;15.27;;;11.50;77.70;;;;;;5059744;28;20843;-73
2023/04/08 02:59:40;;;;;;;28.53;15.40;;;11.50;77.70;;;;;;5059034;28;20197;-73
2023/04/08 03:02:08;;;;;;;29.30;14.77;;;11.50;77.80;;;;;;5063863;28;20702;-73
2023/04/08 03:04:37;;;;;;;28.43;15.40;;;11.50;77.70;;;;;;5061857;28;20197;-74
2023/04/08 03:07:05;;;;;;;30.83;16.07;;;11.50;77.70;;;;;;5059850;28;20690;-74
2023/04/08 03:09:37;;;;;;;29.70;15.20;;;11.50;77.70;;;;;;5075049;28;20281;-74
2023/04/08 03:12:06;;;;;;;33.00;15.73;;;11.50;77.70;;;;;;5055774;28;20191;-74
2023/04/08 03:14:34;;;;;;;31.73;15.80;;;11.50;77.70;;;;;;5063337;28;20595;-73
2023/04/08 03:17:02;;;;;;;27.13;15.10;;;11.50;77.60;;;;;;5062606;28;20202;-73
2023/04/08 03:19:31;;;;;;;29.03;15.60;;;11.50;77.60;;;;;;5059226;28;20236;-74
2023/04/08 03:21:59;;;;;;;27.90;16.10;;;11.50;77.70;;;;;;5057628;28;20206;-74
2023/04/08 03:24:27;;;;;;;26.10;15.03;;;11.50;77.70;;;;;;5065033;28;20276;-73
2023/04/08 03:26:57;;;;;;;27.93;14.50;;;11.50;77.80;;;;;;5063412;28;20275;-73
2023/04/08 03:29:26;;;;;;;29.57;15.80;;;11.50;77.80;;;;;;5068454;28;20194;-73
2023/04/08 03:31:54;;;;;;;29.33;15.53;;;11.50;77.80;;;;;;5069468;28;20702;-73
2023/04/08 03:34:23;;;;;;;27.67;15.17;;;11.50;77.70;;;;;;5064362;28;20197;-73
2023/04/08 03:36:51;;;;;;;29.93;15.07;;;11.50;77.80;;;;;;5065444;28;20244;-73
2023/04/08 03:39:19;;;;;;;33.50;15.37;;;11.50;78.00;;;;;;5065493;28;20590;-73
2023/04/08 03:41:48;;;;;;;32.33;15.70;;;11.50;78.00;;;;;;5064577;28;20603;-74
2023/04/08 03:44:18;;;;;;;29.63;15.27;;;11.50;78.00;;;;;;5067162;28;20240;-73
2023/04/08 03:46:46;;;;;;;29.57;14.73;;;11.50;78.00;;;;;;5059137;28;20260;-73
2023/04/08 03:49:14;;;;;;;36.13;15.97;;;11.50;77.90;;;;;;5070942;28;20218;-73
2023/04/08 03:51:42;;;;;;;32.33;15.17;;;11.50;77.90;;;;;;5075363;28;20202;-73
2023/04/08 03:54:11;;;;;;;27.80;15.23;;;11.50;78.00;;;;;;5068910;28;20194;-73
2023/04/08 03:56:39;;;;;;;29.60;14.63;;;11.50;78.80;;;;;;5066492;28;20251;-75
2023/04/08 03:59:08;;;;;;;31.83;15.33;;;11.50;77.90;;;;;;5069348;28;20223;-73
2023/04/08 04:01:37;;;;;;;30.77;15.43;;;11.50;77.80;;;;;;5063852;28;20296;-73
2023/04/08 04:04:08;;;;;;;29.50;15.37;;;11.50;77.70;;;;;;5071829;28;20186;-73
2023/04/08 04:06:37;;;;;;;30.13;16.17;;;11.50;77.50;;;;;;5072486;28;20186;-74
2023/04/08 04:09:06;;;;;;;29.43;15.53;;;11.50;77.40;;;;;;5067846;28;20210;-74
2023/04/08 04:11:35;;;;;;;29.73;16.23;;;11.50;77.40;;;;;;5080024;28;20256;-73
2023/04/08 04:14:03;;;;;;;28.70;14.93;;;11.50;77.20;;;;;;5077243;28;20647;-74
2023/04/08 04:16:32;;;;;;;31.10;16.30;;;11.60;77.20;;;;;;5078160;28;20267;-74
2023/04/08 04:19:01;;;;;;;31.47;15.83;;;11.60;77.20;;;;;;5074765;28;20198;-75
2023/04/08 04:21:30;;;;;;;33.23;16.57;;;11.60;77.20;;;;;;5072407;28;20190;-74
2023/04/08 04:23:58;;;;;;;30.83;17.20;;;11.60;77.30;;;;;;5068603;28;20189;-75
2023/04/08 04:26:27;;;;;;;29.53;16.53;;;11.70;77.40;;;;;;5071033;28;20220;-75
2023/04/08 04:28:55;;;;;;;32.70;16.50;;;11.70;77.50;;;;;;5071980;28;20214;-74
2023/04/08 04:31:25;;;;;;;34.53;16.60;;;11.70;77.50;;;;;;5064874;28;20194;-74
2023/04/08 04:33:54;;;;;;;32.83;16.40;;;11.80;78.30;;;;;;5073319;28;20195;-76
2023/04/08 04:36:24;;;;;;;29.33;15.47;;;11.80;77.60;;;;;;5071284;28;20214;-74
2023/04/08 04:38:52;;;;;;;32.03;15.73;;;11.90;77.60;;;;;;5072232;28;20191;-74
2023/04/08 04:41:21;;;;;;;32.83;16.43;;;11.90;77.60;;;;;;5071250;28;20252;-74
2023/04/08 04:43:50;;;;;;;30.73;16.13;;;11.90;77.60;;;;;;5072392;28;20194;-74
2023/04/08 04:46:18;;;;;;;33.20;16.63;;;11.90;77.70;;;;;;5071776;28;20187;-73
2023/04/08 04:48:46;;;;;;;31.30;15.43;;;11.90;77.60;;;;;;5069901;28;20886;-74
2023/04/08 04:51:15;;;;;;;32.27;16.30;;;12.00;77.70;;;;;;5069910;28;20221;-74
2023/04/08 04:53:44;;;;;;;29.37;15.63;;;11.90;77.90;;;;;;5068620;28;20194;-75
2023/04/08 04:56:13;;;;;;;29.63;15.87;;;11.90;77.90;;;;;;5069994;28;20230;-74
2023/04/08 04:58:41;;;;;;;29.77;16.03;;;11.90;78.00;;;;;;5071759;28;20211;-74
2023/04/08 05:01:10;;;;;;;31.70;16.03;;;11.90;78.10;;;;;;5068487;28;20214;-73
2023/04/08 05:03:38;;;;;;;31.17;16.70;;;11.90;78.30;;;;;;5067211;28;20199;-74
2023/04/08 05:06:07;;;;;;;29.87;16.13;;;11.90;78.40;;;;;;5068122;28;20230;-74
2023/04/08 05:08:35;;;;;;;34.23;17.77;;;11.90;78.60;;;;;;5068409;28;20211;-74
2023/04/08 05:11:09;;;;;;;37.03;17.40;;;11.90;78.80;;;;;;5066760;28;20190;-74
2023/04/08 05:13:37;;;;;;;35.53;17.80;;;12.00;79.10;;;;;;5071746;28;20247;-74
2023/04/08 05:16:06;;;;;;;33.00;16.83;;;12.00;79.20;;;;;;5073963;28;20557;-73
2023/04/08 05:18:34;;;;;;;31.20;15.97;;;12.00;79.70;;;;;;5068906;28;20198;-75
2023/04/08 05:21:03;;;;;;;33.13;17.60;;;12.00;79.80;;;;;;5064853;28;20592;-74
2023/04/08 05:23:31;;;;;;;35.40;18.17;;;12.00;79.90;;;;;;5071857;28;20252;-74
2023/04/08 05:26:00;;;;;;;30.73;16.90;;;12.00;79.80;;;;;;5070283;28;20192;-75
2023/04/08 05:28:30;;;;;;;33.23;16.40;;;12.00;80.20;;;;;;5069459;28;20557;-74
2023/04/08 05:30:58;;;;;;;31.93;17.13;;;12.10;80.10;;;;;;5068568;28;20222;-75
2023/04/08 05:33:26;;;;;;;33.43;17.57;;;12.10;80.60;;;;;;5070595;28;20214;-74
2023/04/08 05:35:55;;;;;;;36.77;19.10;;;12.10;80.40;;;;;;5070560;28;20190;-73
2023/04/08 05:38:23;;;;;;;33.50;17.00;;;12.10;80.40;;;;;;5070313;28;20190;-74
2023/04/08 05:40:52;;;;;;;33.60;17.37;;;12.10;80.50;;;;;;5066813;28;20255;-73
2023/04/08 05:43:20;;;;;;;33.80;17.73;;;12.10;80.40;;;;;;5070177;28;20232;-74
2023/04/08 05:45:50;;;;;;;33.63;17.90;;;12.10;80.00;;;;;;5069733;28;20190;-73
2023/04/08 05:48:18;;;;;;;32.90;17.67;;;12.10;80.70;;;;;;5073013;28;20226;-74
2023/04/08 05:50:47;;;;;;;34.87;18.20;;;12.20;79.90;;;;;;5070827;28;20225;-74
2023/04/08 05:53:15;;;;;;;35.43;18.03;;;12.20;79.90;;;;;;5071636;28;20188;-74
2023/04/08 05:55:44;;;;;;;35.70;17.80;;;12.30;79.90;;;;;;5069561;28;20191;-74
2023/04/08 05:58:12;;;;;;;32.53;17.83;;;12.30;79.70;;;;;;5071891;28;20247;-74
2023/04/08 06:00:40;;;;;;;36.77;19.03;;;12.30;79.50;;;;;;5069914;28;20203;-74
2023/04/08 06:03:10;;;;;;;32.70;18.00;;;12.40;79.30;;;;;;5072858;28;20259;-74
2023/04/08 06:05:39;;;;;;;30.90;17.23;;;12.50;79.10;;;;;;5065551;28;20254;-75
2023/04/08 06:08:07;;;;;;;34.30;19.17;;;12.50;79.10;;;;;;5068661;28;20232;-77
2023/04/08 06:10:37;;;;;;;36.53;18.70;;;12.50;79.80;;;;;;5068531;28;20186;-75
2023/04/08 06:13:05;;;;;;;34.40;18.43;;;12.60;79.10;;;;;;5075229;28;20224;-74
2023/04/08 06:15:33;;;;;;;31.80;18.10;;;12.60;78.70;;;;;;5075423;28;20927;-73
2023/04/08 06:18:01;;;;;;;33.63;18.40;;;12.60;78.60;;;;;;5072683;28;20187;-73
2023/04/08 06:20:32;;;;;;;33.03;16.93;;;12.50;78.10;;;;;;5082760;28;20201;-73
2023/04/08 06:23:00;;;;;;;36.03;18.03;;;12.60;78.30;;;;;;5074665;28;20186;-74
2023/04/08 06:25:28;;;;;;;31.90;17.57;;;12.60;78.10;;;;;;5071839;28;20190;-74
2023/04/08 06:27:57;;;;;;;37.43;18.27;;;12.60;78.00;;;;;;5067547;28;20245;-73
2023/04/08 06:30:25;;;;;;;37.23;18.83;;;12.60;77.90;;;;;;5064440;28;20275;-74
2023/04/08 06:32:54;;;;;;;31.97;17.37;;;12.60;78.00;;;;;;5071028;28;20226;-74
2023/04/08 06:35:22;;;;;;;37.47;17.80;;;12.60;78.10;;;;;;5077135;28;20646;-73
2023/04/08 06:37:52;;;;;;;32.70;18.98;;;12.70;78.30;;;;;;5060309;28;20436;-74
2023/04/08 06:40:20;;;;;;;34.13;18.17;;;12.70;78.30;;;;;;5069559;28;20747;-73
2023/04/08 06:42:49;;;;;;;36.60;17.00;;;12.80;78.60;;;;;;5068438;28;20226;-74
2023/04/08 06:45:17;;;;;;;33.10;17.60;;;12.80;78.30;;;;;;5067132;28;20197;-75
2023/04/08 06:47:46;;;;;;;30.90;17.10;;;12.90;78.10;;;;;;5061832;28;20651;-75
2023/04/08 06:50:17;;;;;;;34.03;18.10;;;12.90;78.00;;;;;;5069854;28;20222;-74
2023/04/08 06:52:45;;;;;;;31.83;16.23;;;12.90;77.80;;;;;;5071951;28;20244;-74
2023/04/08 06:55:15;;;;;;;28.80;17.20;;;13.00;77.80;;;;;;5070015;28;20275;-74
2023/04/08 06:57:44;;;;;;;30.17;16.77;;;13.10;77.40;;;;;;5066790;28;20199;-74
2023/04/08 07:00:13;;;;;;;27.97;15.80;;;13.10;76.80;;;;;;5069727;28;20647;-74
2023/04/08 07:02:41;;;;;;;28.30;16.80;;;13.10;76.10;;;;;;5072129;28;20190;-74
2023/04/08 07:05:10;;;;;;;28.23;15.97;;;13.10;75.40;;;;;;5068001;28;20194;-75
2023/04/08 07:07:38;;;;;;;29.53;16.10;;;13.10;74.90;;;;;;5064162;28;20205;-77
2023/04/08 07:10:07;;;;;;;27.23;14.97;;;13.20;75.30;;;;;;5071831;28;20213;-74
2023/04/08 07:12:39;;;;;;;29.43;15.10;;;13.20;74.40;;;;;;5064448;28;20198;-75
2023/04/08 07:15:09;;;;;;;23.87;13.43;;;13.30;74.60;;;;;;5076226;28;20278;-75
2023/04/08 07:17:38;;;;;;;24.47;13.67;;;13.30;74.90;;;;;;5070527;28;20643;-74
2023/04/08 07:20:08;;;;;;;25.40;14.33;;;13.40;74.40;;;;;;5061875;28;20715;-76
2023/04/08 07:22:36;;;;;;;27.10;15.27;;;13.40;74.30;;;;;;5069882;28;20252;-74
2023/04/08 07:25:05;;;;;;;27.13;15.33;;;13.40;74.00;;;;;;5075394;28;20185;-74
2023/04/08 07:27:34;;;;;;;25.07;15.37;;;13.40;74.00;;;;;;5072547;28;20659;-73
2023/04/08 07:30:04;;;;;;;27.23;14.97;;;13.40;74.10;;;;;;5069894;28;20752;-73
2023/04/08 07:32:33;;;;;;;26.20;15.50;;;13.50;74.40;;;;;;5070168;28;20694;-73
2023/04/08 07:35:02;;;;;;;28.43;15.70;;;13.50;74.40;;;;;;5078101;28;20651;-72
2023/04/08 07:37:31;;;;;;;26.27;14.23;;;13.50;74.20;;;;;;5065277;28;20259;-75
2023/04/08 07:39:59;;;;;;;22.43;13.80;;;13.60;74.10;;;;;;5069832;28;20249;-74
2023/04/08 07:42:27;;;;;;;22.60;13.10;;;13.60;74.10;;;;;;5067698;28;20210;-74
2023/04/08 07:44:56;;;;;;;22.80;13.40;;;13.60;73.70;;;;;;5069698;28;20289;-72
2023/04/08 07:47:26;;;;;;;24.60;12.93;;;13.70;73.70;;;;;;5065463;28;20709;-74
2023/04/08 07:49:54;;;;;;;24.30;13.67;;;13.70;73.60;;;;;;5075069;28;20226;-73
2023/04/08 07:52:22;;;;;;;22.20;12.43;;;13.70;72.70;;;;;;5065145;28;20643;-74
2023/04/08 07:54:51;;;;;;;22.27;13.27;;;13.70;71.50;;;;;;5069242;28;20236;-73
2023/04/08 07:57:20;;;;;;;22.17;13.27;;;13.70;72.30;;;;;;5071630;28;20639;-73
2023/04/08 07:59:48;;;;;;;20.70;12.10;;;13.70;72.50;;;;;;5068229;28;20249;-73
2023/04/08 08:02:17;;;;;;;20.03;12.13;;;13.80;72.50;;;;;;5066030;28;20195;-75
2023/04/08 08:04:47;;;;;;;27.63;13.97;;;13.80;71.90;;;;;;5024404;28;20190;-73
2023/04/08 08:07:15;;;;;;;23.87;13.10;;;13.80;71.90;;;;;;5070258;28;20281;-76
2023/04/08 08:09:43;;;;;;;22.30;13.13;;;13.80;72.20;;;;;;5073425;28;20633;-74
2023/04/08 08:12:12;;;;;;;26.73;13.80;;;13.80;72.70;;;;;;5071044;28;20190;-74
2023/04/08 08:14:40;;;;;;;23.57;13.73;;;13.90;72.70;;;;;;5073072;28;20272;-73
2023/04/08 08:17:08;;;;;;;22.70;14.23;;;14.00;72.90;;;;;;5069709;28;20225;-72
2023/04/08 08:19:37;;;;;;;22.57;13.23;;;14.10;72.70;;;;;;5076319;28;20677;-73
2023/04/08 08:22:06;;;;;;;19.83;12.60;;;14.10;71.90;;;;;;5076566;28;20195;-72
2023/04/08 08:24:35;;;;;;;25.90;12.47;;;14.20;71.90;;;;;;5073100;28;20650;-74
2023/04/08 08:27:05;;;;;;;19.30;11.37;;;14.30;72.00;;;;;;5073407;28;20529;-74
2023/04/08 08:29:33;;;;;;;23.63;12.03;;;14.40;71.70;;;;;;5073831;28;21619;-73
2023/04/08 08:32:02;;;;;;;19.17;11.87;;;14.50;71.70;;;;;;5075383;28;20214;-73
2023/04/08 08:34:30;;;;;;;21.50;12.70;;;14.50;71.50;;;;;;5074596;28;20237;-74
2023/04/08 08:36:59;;;;;;;23.30;12.27;;;14.60;70.80;;;;;;5076373;28;20198;-73
2023/04/08 08:39:29;;;;;;;19.60;11.83;;;14.70;70.90;;;;;;5074961;28;20643;-73
2023/04/08 08:41:57;;;;;;;20.67;12.03;;;14.70;70.80;;;;;;5069568;28;20248;-74
2023/04/08 08:44:26;;;;;;;22.73;12.17;;;14.70;70.60;;;;;;5065265;28;20281;-73
2023/04/08 08:46:55;;;;;;;20.83;12.03;;;14.80;70.00;;;;;;5071564;28;20654;-76
2023/04/08 08:49:37;;;;;;;23.80;12.87;;;14.80;70.00;;;;;;5065978;28;20199;-78
2023/04/08 08:52:06;;;;;;;21.23;12.17;;;14.90;70.00;;;;;;5067935;28;20244;-77
2023/04/08 08:54:36;;;;;;;20.83;12.20;;;14.90;69.70;;;;;;5077383;28;20252;-77
2023/04/08 08:57:04;;;;;;;20.90;11.40;;;15.00;69.70;;;;;;5071897;28;20252;-78
2023/04/08 08:59:33;;;;;;;19.43;12.20;;;15.00;69.60;;;;;;5069972;28;20190;-78
2023/04/08 09:02:24;;;;;;;23.17;12.77;;;15.00;69.10;;;;;;5072295;28;20701;-78
2023/04/08 09:04:58;;;;;;;18.17;11.40;;;15.00;68.60;;;;;;5067562;28;20195;-78
2023/04/08 09:07:27;;;;;;;22.33;12.07;;;15.10;69.00;;;;;;5065094;28;20190;-77
2023/04/08 09:09:59;;;;;;;19.53;12.00;;;15.10;69.10;;;;;;5060437;28;20221;-78
2023/04/08 09:12:29;;;;;;;20.07;12.10;;;15.00;67.70;;;;;;5074834;28;20190;-78
2023/04/08 09:15:05;;;;;;;18.50;11.73;;;15.00;67.20;;;;;;5069626;28;20198;-78
2023/04/08 09:17:36;;;;;;;21.47;11.80;;;15.00;67.20;;;;;;5068044;28;20244;-78
2023/04/08 09:20:10;;;;;;;17.67;10.73;;;15.10;67.70;;;;;;5068224;28;20194;-78
2023/04/08 09:22:58;;;;;;;16.67;11.00;;;15.10;68.00;;;;;;5068387;28;20190;-78
2023/04/08 09:25:29;;;;;;;18.10;10.70;;;15.20;68.10;;;;;;5071990;28;20186;-78
2023/04/08 09:28:05;;;;;;;19.53;12.00;;;15.30;67.60;;;;;;5072847;28;20647;-78
2023/04/08 09:30:51;;;;;;;17.00;10.67;;;15.30;66.80;;;;;;5055241;28;20221;-78
2023/04/08 09:33:20;;;;;;;22.53;12.90;;;15.40;67.30;;;;;;5069605;28;20256;-77
2023/04/08 09:35:48;;;;;;;21.70;13.30;;;15.40;67.30;;;;;;5074126;28;20667;-77
2023/04/08 09:38:17;;;;;;;19.80;12.53;;;15.50;67.60;;;;;;5065370;28;20209;-77
2023/04/08 09:40:46;;;;;;;21.83;12.13;;;15.60;67.60;;;;;;5067100;28;20244;-78
2023/04/08 09:43:21;;;;;;;22.60;11.87;;;15.70;67.60;;;;;;5067430;28;20206;-78
2023/04/08 09:45:50;;;;;;;19.00;11.83;;;15.70;67.70;;;;;;5069694;28;20236;-77
2023/04/08 09:48:24;;;;;;;19.43;12.37;;;15.80;67.60;;;;;;5068766;28;20743;-78
2023/04/08 09:50:59;;;;;;;20.67;11.23;;;15.80;67.50;;;;;;5062578;28;20214;-77
2023/04/08 09:53:35;;;;;;;23.27;11.60;;;15.90;67.30;;;;;;5043689;28;20186;-76
2023/04/08 09:56:10;;;;;;;17.37;11.33;;;15.90;67.20;;;;;;5046351;28;20187;-78
2023/04/08 09:58:59;;;;;;;19.83;10.33;;;16.00;66.90;;;;;;5046151;28;20198;-78
2023/04/08 10:01:38;;;;;;;17.90;11.20;;;16.10;67.30;;;;;;5046136;28;20187;-77
2023/04/08 10:04:12;;;;;;;19.23;11.73;;;16.20;66.20;;;;;;5041765;28;20191;-78
2023/04/08 10:06:41;;;;;;;19.93;12.23;;;16.20;65.90;;;;;;5047986;28;20186;-77
2023/04/08 10:09:10;;;;;;;19.77;12.23;;;16.20;65.70;;;;;;5050529;28;20683;-78
2023/04/08 10:11:40;;;;;;;18.53;11.37;;;16.30;65.30;;;;;;5049227;28;20223;-78
2023/04/08 10:14:10;;;;;;;20.77;10.87;;;16.30;65.00;;;;;;5044956;28;20199;-77
2023/04/08 10:16:38;;;;;;;19.77;12.95;;;16.40;64.90;;;;;;5048977;28;20504;-77
2023/04/08 10:19:39;;;;;;;18.10;11.27;;;16.50;64.10;;;;;;5046617;28;20203;-76
2023/04/08 10:22:41;;;;;;;19.07;12.13;;;16.50;64.10;;;;;;5043846;28;20244;-77
2023/04/08 10:25:28;;;;;;;20.70;12.67;;;16.60;64.20;;;;;;5047679;28;20187;-76
2023/04/08 10:27:58;;;;;;;19.07;11.77;;;16.60;64.60;;;;;;5052089;28;20733;-76
2023/04/08 10:30:43;;;;;;;17.37;11.43;;;16.70;64.10;;;;;;5044602;28;20622;-76
2023/04/08 10:33:15;;;;;;;17.53;11.60;;;16.80;63.70;;;;;;5060025;28;20218;-75
2023/04/08 10:35:48;;;;;;;19.30;11.53;;;16.90;63.60;;;;;;5070786;28;20682;-76
2023/04/08 10:38:18;;;;;;;19.97;12.30;;;17.00;63.00;;;;;;5070591;28;20316;-78
2023/04/08 10:40:48;;;;;;;20.90;11.87;;;17.00;63.40;;;;;;5067949;28;20210;-76
2023/04/08 10:43:18;;;;;;;16.40;10.80;;;17.00;62.40;;;;;;5070782;28;20199;-76
2023/04/08 10:45:50;;;;;;;17.30;11.47;;;17.00;61.10;;;;;;5068735;28;20629;-76
2023/04/08 10:48:21;;;;;;;18.83;11.50;;;17.00;61.50;;;;;;5066750;28;20190;-76
2023/04/08 10:50:56;;;;;;;18.60;11.17;;;17.00;61.60;;;;;;5066766;28;20190;-77
2023/04/08 10:53:27;;;;;;;20.43;11.87;;;17.00;61.30;;;;;;5074975;28;20320;-77
2023/04/08 10:56:05;;;;;;;18.77;11.03;;;16.90;61.50;;;;;;5065033;28;20295;-76
2023/04/08 10:58:50;;;;;;;19.20;11.37;;;16.90;61.80;;;;;;5067142;28;20197;-78
2023/04/08 11:01:27;;;;;;;19.30;11.00;;;16.90;60.90;;;;;;5064083;28;20530;-77
2023/04/08 11:03:58;;;;;;;17.97;11.57;;;16.90;61.50;;;;;;5067731;28;20194;-76
2023/04/08 11:06:31;;;;;;;18.27;11.37;;;16.90;61.30;;;;;;5068483;28;20324;-77
2023/04/08 11:09:03;;;;;;;20.00;12.23;;;17.00;61.60;;;;;;5065074;28;20239;-76
2023/04/08 11:11:31;;;;;;;19.00;11.67;;;17.10;62.00;;;;;;5065667;28;20298;-77
2023/04/08 11:14:02;;;;;;;18.33;11.03;;;17.10;61.60;;;;;;5067368;28;20198;-76
2023/04/08 11:16:31;;;;;;;18.17;12.03;;;17.10;61.60;;;;;;5070503;28;20190;-77
2023/04/08 11:18:59;;;;;;;19.83;12.20;;;17.00;60.60;;;;;;5067948;28;20646;-77
2023/04/08 11:21:29;;;;;;;18.37;11.47;;;17.00;61.30;;;;;;5072276;28;20256;-76
2023/04/08 11:23:58;;;;;;;21.67;11.73;;;17.10;61.90;;;;;;5082282;28;20603;-77
2023/04/08 11:26:27;;;;;;;16.60;11.57;;;17.10;61.90;;;;;;5073754;28;20218;-76
2023/04/08 11:28:57;;;;;;;17.53;10.90;;;17.10;61.60;;;;;;5077257;28;20721;-76
2023/04/08 11:31:28;;;;;;;19.73;11.57;;;17.10;61.70;;;;;;5080984;28;20218;-77
2023/04/08 11:33:57;;;;;;;18.73;11.13;;;17.10;61.70;;;;;;5074432;28;20213;-77
2023/04/08 11:36:26;;;;;;;17.27;11.07;;;17.00;61.80;;;;;;5078093;28;20222;-77
2023/04/08 11:38:57;;;;;;;17.93;10.73;;;17.00;60.80;;;;;;5068854;28;20602;-77
2023/04/08 11:41:36;;;;;;;18.40;11.20;;;17.00;61.10;;;;;;5068048;28;20645;-77
2023/04/08 11:44:05;;;;;;;16.97;12.10;;;17.10;61.40;;;;;;5072162;28;20598;-77
2023/04/08 11:46:36;;;;;;;19.17;11.50;;;17.00;61.20;;;;;;5073897;28;20248;-77
2023/04/08 11:49:06;;;;;;;16.17;10.27;;;17.00;61.30;;;;;;5072542;28;21959;-77
2023/04/08 11:51:53;;;;;;;18.50;10.80;;;17.10;61.60;;;;;;5070611;28;20252;-76
2023/04/08 11:54:28;;;;;;;16.33;10.70;;;17.10;61.50;;;;;;5067748;28;20194;-77
2023/04/08 11:56:57;;;;;;;17.20;10.57;;;17.20;61.20;;;;;;5072246;28;20263;-76
2023/04/08 11:59:26;;;;;;;18.17;11.53;;;17.20;61.10;;;;;;5074100;28;20186;-76
2023/04/08 12:01:58;;;;;;;15.90;10.53;;;17.30;60.30;;;;;;5076584;28;20282;-77
2023/04/08 12:04:27;;;;;;;18.27;10.70;;;17.40;60.80;;;;;;5075045;28;20189;-77
2023/04/08 12:06:55;;;;;;;17.83;11.17;;;17.50;60.70;;;;;;5071188;28;20195;-78
2023/04/08 12:09:26;;;;;;;17.67;10.53;;;17.60;59.90;;;;;;5072832;28;20186;-77
2023/04/08 12:11:55;;;;;;;16.13;10.87;;;17.70;59.60;;;;;;5065849;28;20279;-77
2023/04/08 12:14:24;;;;;;;14.30;9.93;;;17.80;59.10;;;;;;5062028;28;20656;-76
2023/04/08 12:16:55;;;;;;;13.70;9.67;;;17.90;59.40;;;;;;5070777;28;20561;-77
2023/04/08 12:19:25;;;;;;;17.47;10.23;;;18.00;59.50;;;;;;5069402;28;20203;-77
2023/04/08 12:21:54;;;;;;;13.30;9.50;;;18.20;59.00;;;;;;5073182;28;20190;-77
2023/04/08 12:24:22;;;;;;;13.37;10.20;;;18.30;59.10;;;;;;5077391;28;20191;-76
2023/04/08 12:26:50;;;;;;;16.47;9.90;;;18.30;58.40;;;;;;5078557;28;20218;-77
2023/04/08 12:29:19;;;;;;;14.97;9.50;;;18.30;58.10;;;;;;5070745;28;20205;-78
2023/04/08 12:31:47;;;;;;;17.80;10.03;;;18.40;57.90;;;;;;5071663;28;20602;-78
2023/04/08 12:34:16;;;;;;;15.40;10.17;;;18.50;57.80;;;;;;5080781;28;20755;-77
2023/04/08 12:36:48;;;;;;;15.00;9.70;;;18.60;57.90;;;;;;5075785;28;20294;-78
2023/04/08 12:39:19;;;;;;;17.95;10.50;;;18.60;58.00;;;;;;5073152;28;20195;-77
2023/04/08 12:41:51;;;;;;;16.13;10.03;;;18.70;57.60;;;;;;5073861;28;20202;-76
2023/04/08 12:44:19;;;;;;;14.90;9.73;;;18.80;57.30;;;;;;5068426;28;20268;-77